Bahrain International Airport
OBBI : now visible

Airfield :











YOU CAN JOIN US ON...

 
LOGIN :

Register | Disclaimer

   EN    FR    IT 

 









Legend :    VFR   Marginal VFR   IFR   Intensive IFR   Very Intensive IFR
Visi :
Ceiling :
>= 8 km
>= 3000ft
5 to 8 km
1000 to 3000 ft
1500m to 5 km
500 to 1000 ft
800 to 1500m
200 to 500 ft
< 800m
< 200 ft
Symbols :   Thunderstorms  Fog  Heavy snow  Heavy precipitations  Wind > 20 kt







- Airport Elevation : 6 ft
- IATA code : BAH


OBBI - Bahrain International

CURRENT METAR :
  • 201230Z 33018KT 9999 FEW030 19/07 Q1019 NOSIG

EXPIRED METARs :
  • 201200Z 32018KT 9999 FEW030 20/08 Q1019 NOSIG
  • 201130Z 33017KT 9999 FEW030 19/08 Q1019 NOSIG
  • 201100Z 31018KT 9999 FEW030 19/08 Q1019 NOSIG
  • 201030Z 31015KT 9999 FEW030 20/08 Q1019 NOSIG
  • 201000Z 31016KT 9999 FEW030 19/09 Q1020 NOSIG

TAF TAF OBBI
Valid from the 20 at 12:00 until the 21 at 18:00 UTC


201100Z 2012/2118 33015G25KT 9999 FEW025
BECMG 2015/2017 32012KT
OBBB FIR / Asia



MET'MAP, your aeronautical weather chart ! - Copyright ORBIFLY December 2007 - Disclaimer

ORBIFLY MET'MAP TEAM :

Programming & Development : Alexandra Zaïnal
Concept & Development : Baudouin d'Aumeries
Co-Development & Prog : Marc-Olivier Méhu
Technical & hardware support : Manuel Goepfert

Contact : metmap@orbifly.com




SOURCES & CREDITS :

   NOAA       Earth
Advisory